sensor_id;sensor_type;location;lat;lon;timestamp;pressure;altitude;pressure_sealevel;temperature;humidity
26839;BME280;40088;51.214;6.786;2024-02-21T00:06:22;102083.44;;;15.70;60.00
26839;BME280;40088;51.214;6.786;2024-02-21T00:16:22;102072.47;;;15.70;59.98
26839;BME280;40088;51.214;6.786;2024-02-21T00:26:23;102052.38;;;15.70;60.00
26839;BME280;40088;51.214;6.786;2024-02-21T00:36:23;102043.09;;;15.71;60.09
26839;BME280;40088;51.214;6.786;2024-02-21T00:46:25;102026.59;;;15.71;60.13
26839;BME280;40088;51.214;6.786;2024-02-21T00:56:25;102019.38;;;15.70;60.07
26839;BME280;40088;51.214;6.786;2024-02-21T01:06:26;102018.38;;;15.71;60.16
26839;BME280;40088;51.214;6.786;2024-02-21T01:16:27;102019.38;;;15.70;60.09
26839;BME280;40088;51.214;6.786;2024-02-21T01:26:27;101978.16;;;15.70;60.02
26839;BME280;40088;51.214;6.786;2024-02-21T01:36:27;101971.81;;;15.69;60.13
26839;BME280;40088;51.214;6.786;2024-02-21T01:46:28;101955.31;;;15.69;60.00
26839;BME280;40088;51.214;6.786;2024-02-21T01:56:30;101946.22;;;15.69;60.05
26839;BME280;40088;51.214;6.786;2024-02-21T02:06:31;101933.34;;;15.69;59.98
26839;BME280;40088;51.214;6.786;2024-02-21T02:16:32;101911.38;;;15.69;60.22
26839;BME280;40088;51.214;6.786;2024-02-21T02:26:32;101891.25;;;15.69;60.05
26839;BME280;40088;51.214;6.786;2024-02-21T02:36:33;101873.75;;;15.70;60.04
26839;BME280;40088;51.214;6.786;2024-02-21T02:46:35;101880.28;;;15.69;59.98
26839;BME280;40088;51.214;6.786;2024-02-21T02:56:35;101882.16;;;15.68;60.19
26839;BME280;40088;51.214;6.786;2024-02-21T03:06:36;101855.53;;;15.69;60.07
26839;BME280;40088;51.214;6.786;2024-02-21T03:16:36;101847.31;;;15.69;60.00
26839;BME280;40088;51.214;6.786;2024-02-21T03:26:36;101824.28;;;15.70;60.15
26839;BME280;40088;51.214;6.786;2024-02-21T03:36:37;101835.47;;;15.68;60.27
26839;BME280;40088;51.214;6.786;2024-02-21T03:46:38;101826.34;;;15.68;60.24
26839;BME280;40088;51.214;6.786;2024-02-21T03:56:38;101828.06;;;15.69;60.11
26839;BME280;40088;51.214;6.786;2024-02-21T04:06:48;101822.56;;;15.69;60.07
26839;BME280;40088;51.214;6.786;2024-02-21T04:16:49;101815.38;;;15.68;60.19
26839;BME280;40088;51.214;6.786;2024-02-21T04:26:50;101793.38;;;15.68;60.04
26839;BME280;40088;51.214;6.786;2024-02-21T04:36:50;101796.13;;;15.68;60.09
26839;BME280;40088;51.214;6.786;2024-02-21T04:46:51;101810.72;;;15.68;60.16
26839;BME280;40088;51.214;6.786;2024-02-21T04:56:52;101797.84;;;15.69;60.18
26839;BME280;40088;51.214;6.786;2024-02-21T05:06:52;101783.25;;;15.68;60.03
26839;BME280;40088;51.214;6.786;2024-02-21T05:16:53;101794.25;;;15.68;59.90
26839;BME280;40088;51.214;6.786;2024-02-21T05:26:55;101775.00;;;15.68;60.07
26839;BME280;40088;51.214;6.786;2024-02-21T05:36:55;101768.66;;;15.68;60.02
26839;BME280;40088;51.214;6.786;2024-02-21T05:46:57;101765.91;;;15.68;60.01
26839;BME280;40088;51.214;6.786;2024-02-21T05:56:58;101765.91;;;15.68;60.04
26839;BME280;40088;51.214;6.786;2024-02-21T06:06:58;101741.34;;;15.66;60.01
26839;BME280;40088;51.214;6.786;2024-02-21T06:16:58;101716.44;;;15.68;60.07
26839;BME280;40088;51.214;6.786;2024-02-21T06:26:59;101716.44;;;15.68;59.90
26839;BME280;40088;51.214;6.786;2024-02-21T06:36:59;101705.44;;;15.68;60.10
26839;BME280;40088;51.214;6.786;2024-02-21T06:47:00;101683.47;;;15.68;59.92
26839;BME280;40088;51.214;6.786;2024-02-21T06:57:00;101679.69;;;15.69;59.97
26839;BME280;40088;51.214;6.786;2024-02-21T07:07:01;101683.47;;;15.68;60.09
26839;BME280;40088;51.214;6.786;2024-02-21T07:17:01;101694.47;;;15.68;59.99
26839;BME280;40088;51.214;6.786;2024-02-21T07:27:02;101683.47;;;15.68;60.03
26839;BME280;40088;51.214;6.786;2024-02-21T07:37:04;101683.47;;;15.68;59.96
26839;BME280;40088;51.214;6.786;2024-02-21T07:47:04;101676.09;;;15.68;59.89
26839;BME280;40088;51.214;6.786;2024-02-21T07:57:07;101665.97;;;15.69;60.00
26839;BME280;40088;51.214;6.786;2024-02-21T08:07:08;101664.25;;;15.68;59.91
26839;BME280;40088;51.214;6.786;2024-02-21T08:17:08;101629.38;;;15.68;59.97
26839;BME280;40088;51.214;6.786;2024-02-21T08:27:09;101611.00;;;15.69;59.93
26839;BME280;40088;51.214;6.786;2024-02-21T08:37:09;101599.16;;;15.68;59.98
26839;BME280;40088;51.214;6.786;2024-02-21T08:47:11;101603.78;;;15.68;59.90
26839;BME280;40088;51.214;6.786;2024-02-21T08:57:11;101578.22;;;15.67;59.85
26839;BME280;40088;51.214;6.786;2024-02-21T09:07:14;101557.09;;;15.68;60.01
26839;BME280;40088;51.214;6.786;2024-02-21T09:17:14;101546.94;;;15.68;60.08
26839;BME280;40088;51.214;6.786;2024-02-21T09:27:17;101536.81;;;15.69;60.00
26839;BME280;40088;51.214;6.786;2024-02-21T09:37:18;101515.88;;;15.68;59.80
26839;BME280;40088;51.214;6.786;2024-02-21T09:47:24;101502.13;;;15.68;59.82
26839;BME280;40088;51.214;6.786;2024-02-21T09:57:33;101493.72;;;15.69;60.00
26839;BME280;40088;51.214;6.786;2024-02-21T10:07:33;101501.94;;;15.69;59.95
26839;BME280;40088;51.214;6.786;2024-02-21T10:17:35;101487.34;;;15.69;59.99
26839;BME280;40088;51.214;6.786;2024-02-21T10:27:37;101483.75;;;15.68;60.06
26839;BME280;40088;51.214;6.786;2024-02-21T10:37:37;101450.78;;;15.68;59.82
26839;BME280;40088;51.214;6.786;2024-02-21T10:47:39;101425.22;;;15.68;59.95
26839;BME280;40088;51.214;6.786;2024-02-21T10:57:40;101391.19;;;15.69;59.99
26839;BME280;40088;51.214;6.786;2024-02-21T11:07:41;101372.81;;;15.69;59.84
26839;BME280;40088;51.214;6.786;2024-02-21T11:17:41;101331.59;;;15.69;60.02
26839;BME280;40088;51.214;6.786;2024-02-21T11:27:48;101284.03;;;15.69;59.97
26839;BME280;40088;51.214;6.786;2024-02-21T11:37:48;101252.78;;;15.70;59.97
26839;BME280;40088;51.214;6.786;2024-02-21T11:47:53;101226.16;;;15.70;59.93
26839;BME280;40088;51.214;6.786;2024-02-21T11:57:55;101197.84;;;15.70;59.96
26839;BME280;40088;51.214;6.786;2024-02-21T12:07:56;101120.91;;;15.70;60.07
26839;BME280;40088;51.214;6.786;2024-02-21T12:17:59;101117.13;;;15.71;60.14
26839;BME280;40088;51.214;6.786;2024-02-21T12:27:59;101111.63;;;15.71;59.91
26839;BME280;40088;51.214;6.786;2024-02-21T12:38:00;101070.41;;;15.71;60.12
26839;BME280;40088;51.214;6.786;2024-02-21T12:48:01;101073.16;;;15.71;60.06
26839;BME280;40088;51.214;6.786;2024-02-21T12:58:03;101047.59;;;15.70;60.00
26839;BME280;40088;51.214;6.786;2024-02-21T13:08:06;101018.22;;;15.71;60.05
26839;BME280;40088;51.214;6.786;2024-02-21T13:18:06;100995.38;;;15.70;60.28
26839;BME280;40088;51.214;6.786;2024-02-21T13:28:06;100997.09;;;15.71;60.15
26839;BME280;40088;51.214;6.786;2024-02-21T13:38:07;100940.28;;;15.72;60.17
26839;BME280;40088;51.214;6.786;2024-02-21T13:48:07;100894.44;;;15.72;60.13
26839;BME280;40088;51.214;6.786;2024-02-21T13:58:11;100883.44;;;15.72;60.21
26839;BME280;40088;51.214;6.786;2024-02-21T14:08:11;100882.59;;;15.72;60.23
26839;BME280;40088;51.214;6.786;2024-02-21T14:18:18;100860.63;;;15.72;60.23
26839;BME280;40088;51.214;6.786;2024-02-21T14:28:18;100833.13;;;15.72;60.38
26839;BME280;40088;51.214;6.786;2024-02-21T14:38:19;100827.44;;;15.73;60.43
26839;BME280;40088;51.214;6.786;2024-02-21T14:48:19;100780.94;;;15.72;60.16
26839;BME280;40088;51.214;6.786;2024-02-21T14:58:21;100756.22;;;15.72;60.32
26839;BME280;40088;51.214;6.786;2024-02-21T15:08:21;100734.03;;;15.73;60.34
26839;BME280;40088;51.214;6.786;2024-02-21T15:18:22;100686.50;;;15.73;60.10
26839;BME280;40088;51.214;6.786;2024-02-21T15:28:22;100679.09;;;15.73;60.33
26839;BME280;40088;51.214;6.786;2024-02-21T15:49:26;100634.28;;;15.73;60.23
26839;BME280;40088;51.214;6.786;2024-02-21T15:59:27;100611.28;;;15.74;60.38
26839;BME280;40088;51.214;6.786;2024-02-21T16:09:27;100614.00;;;15.74;60.20
26839;BME280;40088;51.214;6.786;2024-02-21T16:19:32;100592.03;;;15.74;60.46
26839;BME280;40088;51.214;6.786;2024-02-21T16:29:32;100584.66;;;15.74;60.32
26839;BME280;40088;51.214;6.786;2024-02-21T16:39:43;100559.91;;;15.74;60.38
26839;BME280;40088;51.214;6.786;2024-02-21T16:49:43;100517.88;;;15.74;60.34
26839;BME280;40088;51.214;6.786;2024-02-21T16:59:44;100506.88;;;15.74;60.30
26839;BME280;40088;51.214;6.786;2024-02-21T17:09:51;100496.75;;;15.74;60.40
26839;BME280;40088;51.214;6.786;2024-02-21T17:19:52;100474.75;;;15.74;60.17
26839;BME280;40088;51.214;6.786;2024-02-21T17:29:54;100455.53;;;15.74;60.20
26839;BME280;40088;51.214;6.786;2024-02-21T17:39:54;100426.16;;;15.75;60.40
26839;BME280;40088;51.214;6.786;2024-02-21T17:49:54;100409.69;;;15.75;60.13
26839;BME280;40088;51.214;6.786;2024-02-21T17:59:56;100389.59;;;15.74;60.51
26839;BME280;40088;51.214;6.786;2024-02-21T18:09:59;100369.31;;;15.75;60.44
26839;BME280;40088;51.214;6.786;2024-02-21T18:19:59;100369.31;;;15.75;60.50
26839;BME280;40088;51.214;6.786;2024-02-21T18:30:00;100350.94;;;15.76;60.33
26839;BME280;40088;51.214;6.786;2024-02-21T18:40:00;100342.69;;;15.76;60.42
26839;BME280;40088;51.214;6.786;2024-02-21T18:50:01;100329.81;;;15.76;60.68
26839;BME280;40088;51.214;6.786;2024-02-21T19:00:02;100317.97;;;15.76;60.43
26839;BME280;40088;51.214;6.786;2024-02-21T19:10:07;100299.59;;;15.76;60.59
26839;BME280;40088;51.214;6.786;2024-02-21T19:20:09;100283.97;;;15.77;60.56
26839;BME280;40088;51.214;6.786;2024-02-21T19:30:11;100258.38;;;15.76;60.54
26839;BME280;40088;51.214;6.786;2024-02-21T19:40:13;100221.81;;;15.76;60.52
26839;BME280;40088;51.214;6.786;2024-02-21T19:50:13;100208.94;;;15.76;60.66
26839;BME280;40088;51.214;6.786;2024-02-21T20:00:20;100183.38;;;15.76;60.56
26839;BME280;40088;51.214;6.786;2024-02-21T20:10:20;100160.38;;;15.77;60.66
26839;BME280;40088;51.214;6.786;2024-02-21T20:20:20;100154.66;;;15.78;60.78
26839;BME280;40088;51.214;6.786;2024-02-21T20:30:22;100136.50;;;15.77;60.48
26839;BME280;40088;51.214;6.786;2024-02-21T20:40:23;100113.66;;;15.77;60.68
26839;BME280;40088;51.214;6.786;2024-02-21T20:50:23;100091.69;;;15.77;60.74
26839;BME280;40088;51.214;6.786;2024-02-21T21:00:25;100070.56;;;15.77;60.62
26839;BME280;40088;51.214;6.786;2024-02-21T21:10:25;100051.13;;;15.79;60.76
26839;BME280;40088;51.214;6.786;2024-02-21T21:20:28;100031.88;;;15.79;60.79
26839;BME280;40088;51.214;6.786;2024-02-21T21:30:31;100028.50;;;15.77;60.68
26839;BME280;40088;51.214;6.786;2024-02-21T21:40:32;100006.53;;;15.77;60.91
26839;BME280;40088;51.214;6.786;2024-02-21T21:50:33;99995.34;;;15.78;60.90
26839;BME280;40088;51.214;6.786;2024-02-21T22:00:33;99985.19;;;15.79;60.86
26839;BME280;40088;51.214;6.786;2024-02-21T22:10:34;99973.34;;;15.78;60.92
26839;BME280;40088;51.214;6.786;2024-02-21T22:20:40;99966.81;;;15.79;60.85
26839;BME280;40088;51.214;6.786;2024-02-21T22:30:41;99935.75;;;15.79;60.78
26839;BME280;40088;51.214;6.786;2024-02-21T22:40:43;99922.00;;;15.79;60.99
26839;BME280;40088;51.214;6.786;2024-02-21T22:50:43;99899.19;;;15.78;60.78
26839;BME280;40088;51.214;6.786;2024-02-21T23:00:44;99897.28;;;15.79;61.04
26839;BME280;40088;51.214;6.786;2024-02-21T23:10:45;99870.03;;;15.77;60.83
26839;BME280;40088;51.214;6.786;2024-02-21T23:20:46;99848.06;;;15.77;61.06
26839;BME280;40088;51.214;6.786;2024-02-21T23:30:53;99841.50;;;15.78;60.89
26839;BME280;40088;51.214;6.786;2024-02-21T23:40:54;99815.09;;;15.77;61.13
26839;BME280;40088;51.214;6.786;2024-02-21T23:50:55;99812.34;;;15.77;60.94
